createdAt,value
2022-08-15T04:25:10.281Z,2.9
2022-08-15T04:27:25.095Z,3
2022-08-15T04:29:39.408Z,3.1
2022-08-15T04:31:55.806Z,2.8
2022-08-15T04:34:45.225Z,3.1
2022-08-15T04:36:30.955Z,3.3
2022-08-15T04:38:46.002Z,3.1
2022-08-15T04:41:17.203Z,3.2
2022-08-15T04:43:18.720Z,2.8
2022-08-15T04:45:34.731Z,3.1
2022-08-15T04:47:49.091Z,3
2022-08-15T04:50:04.531Z,2.9
2022-08-15T04:52:18.958Z,2.8
2022-08-15T04:54:36.344Z,3.2
2022-08-15T04:56:53.147Z,3.2
2022-08-15T04:59:30.046Z,2.9
2022-08-15T05:01:40.804Z,3
2022-08-15T05:03:42.656Z,2.9
2022-08-15T05:05:57.157Z,3.1
2022-08-15T05:08:14.059Z,2.7
2022-08-15T05:10:33.006Z,2.7
2022-08-15T05:12:46.748Z,2.9
2022-08-15T05:15:03.013Z,3
2022-08-15T05:17:19.231Z,2.9
2022-08-15T05:19:37.280Z,2.7
2022-08-15T05:21:51.944Z,3
2022-08-15T05:24:06.370Z,2.8
2022-08-15T05:26:37.266Z,2.8
2022-08-15T05:28:39.354Z,3
2022-08-15T05:30:57.380Z,2.8
2022-08-15T05:33:12.310Z,2.9
2022-08-15T05:35:29.323Z,2.8
2022-08-15T05:37:45.147Z,2.9
2022-08-15T05:40:00.578Z,2.8
2022-08-15T05:42:27.802Z,3.3
2022-08-15T05:44:37.835Z,3.3
2022-08-15T05:46:50.273Z,3
2022-08-15T05:49:05.809Z,2.7
2022-08-15T05:51:21.199Z,2.5
2022-08-15T05:53:36.978Z,2.7
2022-08-15T05:55:52.558Z,2.8
2022-08-15T05:58:15.559Z,2.8
2022-08-15T06:00:26.340Z,2.8
2022-08-15T06:02:45.757Z,2.6
2022-08-15T06:04:59.147Z,2.8
2022-08-15T06:07:14.717Z,2.8
2022-08-15T06:09:31.705Z,2.6
2022-08-15T06:11:47.313Z,2.8
2022-08-15T06:14:01.678Z,2.5
2022-08-15T06:16:41.375Z,2.7
2022-08-15T06:18:34.495Z,2.9
2022-08-15T06:20:52.409Z,2.7
2022-08-15T06:23:08.707Z,2.4
2022-08-15T06:25:23.303Z,3
2022-08-15T06:27:49.209Z,2.6
2022-08-15T06:29:54.979Z,2.8
2022-08-15T06:32:22.858Z,3
2022-08-15T06:34:45.820Z,3.3
2022-08-15T06:36:44.543Z,2.8
2022-08-15T06:39:00.126Z,3
2022-08-15T06:41:15.466Z,2.8
2022-08-15T06:43:31.185Z,3
2022-08-15T06:45:47.675Z,3
2022-08-15T06:48:01.755Z,3.2
2022-08-15T06:50:20.272Z,3.2
2022-08-15T06:52:36.334Z,3.3
2022-08-15T06:54:51.729Z,3.2
2022-08-15T06:57:06.218Z,3.2
2022-08-15T06:59:36.194Z,3.3
2022-08-15T07:01:41.769Z,3.2
2022-08-15T07:03:55.236Z,3.3
2022-08-15T07:06:10.583Z,3.6
2022-08-15T07:08:28.815Z,3.6
2022-08-15T07:10:49.170Z,3.6
2022-08-15T07:13:01.643Z,3.4
2022-08-15T07:15:18.012Z,3.5
2022-08-15T07:17:33.430Z,3.7
2022-08-15T07:19:52.568Z,3.6
2022-08-15T07:22:08.622Z,3.8
2022-08-15T07:24:33.888Z,3.6
2022-08-15T07:26:40.573Z,3.7
2022-08-15T07:28:56.085Z,3.8
2022-08-15T07:31:14.043Z,3.7
2022-08-15T07:33:31.381Z,3.5
2022-08-15T07:35:46.304Z,3.5
2022-08-15T07:38:21.224Z,3.4
2022-08-15T07:40:19.105Z,3.7
2022-08-15T07:42:59.357Z,4
2022-08-15T07:44:53.078Z,3.7
2022-08-15T07:47:07.717Z,3.8
2022-08-15T07:49:23.108Z,3.9
2022-08-15T07:51:42.027Z,4
2022-08-15T07:53:57.028Z,3.8
2022-08-15T07:56:39.308Z,4
2022-08-15T07:58:31.741Z,4.1
2022-08-15T08:00:49.961Z,3.7
2022-08-15T08:03:06.407Z,3.5
2022-08-15T08:07:43.381Z,3.8
2022-08-15T08:09:58.717Z,3.9
2022-08-15T08:12:13.138Z,3.9
2022-08-15T08:14:39.747Z,3.7
2022-08-15T08:16:46.939Z,3.9
2022-08-15T08:19:07.436Z,4.1
2022-08-15T08:21:30.063Z,3.7
2022-08-15T08:23:39.793Z,3.7
2022-08-15T08:26:04.076Z,3.7
2022-08-15T08:28:12.712Z,3.7
2022-08-15T08:30:42.968Z,3.3
2022-08-15T08:32:47.081Z,3.7
2022-08-15T08:35:02.342Z,3.3
2022-08-15T08:37:16.743Z,3.5
2022-08-15T08:39:33.455Z,3.4
2022-08-15T08:41:47.642Z,3.7
2022-08-15T08:44:18.235Z,3.8
2022-08-15T08:46:29.324Z,3.2
2022-08-15T08:48:39.434Z,3.5
2022-08-15T08:50:53.052Z,3.7
2022-08-15T08:53:08.414Z,3.6
2022-08-15T08:55:25.278Z,3.6
2022-08-15T08:57:43.337Z,3.6
2022-08-15T08:59:59.138Z,3.3
2022-08-15T09:02:18.132Z,3.8
2022-08-15T09:04:30.871Z,3.7
2022-08-15T09:06:46.536Z,3.1
2022-08-15T09:09:01.980Z,3.7
2022-08-15T09:11:16.323Z,3.2
2022-08-15T09:13:37.983Z,3.6
2022-08-15T09:15:53.716Z,3.6
2022-08-15T09:18:31.490Z,3.8
2022-08-15T09:20:46.956Z,3.3
2022-08-15T09:23:02.263Z,3.7
2022-08-15T09:25:16.658Z,3.8
2022-08-15T09:27:31.030Z,3.6
2022-08-15T09:29:56.275Z,4.3
2022-08-15T09:32:02.748Z,3.9
2022-08-15T09:34:31.112Z,3.9
2022-08-15T09:36:35.641Z,4.3
2022-08-15T09:38:51.012Z,3.5
2022-08-15T09:41:12.204Z,3.5
2022-08-15T09:43:23.873Z,3.4
2022-08-15T09:45:44.336Z,3.3
2022-08-15T09:47:57.898Z,3.6
2022-08-15T09:50:33.083Z,3.9
2022-08-15T09:52:35.135Z,3.7
2022-08-15T09:54:51.290Z,3.9
2022-08-15T09:57:06.290Z,4
2022-08-15T09:59:22.841Z,4.1
2022-08-15T10:01:39.491Z,3.9
2022-08-15T10:03:53.942Z,3.6
2022-08-15T10:06:32.225Z,3.9
2022-08-15T10:08:29.308Z,4
2022-08-15T10:10:43.011Z,3.5
2022-08-15T10:12:57.361Z,3.7
2022-08-15T10:15:12.862Z,3.9
2022-08-15T10:17:29.257Z,3.6
2022-08-15T10:20:00.722Z,3.9
2022-08-15T10:22:02.089Z,4.1
2022-08-15T10:24:21.644Z,4.3
2022-08-15T10:26:36.036Z,4.2
2022-08-15T10:28:53.763Z,3.9
2022-08-15T10:31:08.729Z,4.1
2022-08-15T10:33:24.085Z,3.9
2022-08-15T10:35:38.513Z,4.4
2022-08-15T10:37:55.443Z,4.3
2022-08-15T10:40:12.643Z,4.1
2022-08-15T10:42:26.619Z,4.5
2022-08-15T10:44:41.970Z,4.3
2022-08-15T10:46:59.095Z,4.1
2022-08-15T10:49:12.696Z,4.2
2022-08-15T10:51:29.995Z,4.2
2022-08-15T10:53:50.239Z,4.3
2022-08-15T10:56:01.788Z,4
2022-08-15T10:58:19.722Z,4.6
2022-08-15T11:00:38.425Z,4.5
2022-08-15T11:03:10.143Z,4.2
2022-08-15T11:05:11.659Z,3.7
2022-08-15T11:07:26.834Z,4
2022-08-15T11:09:46.784Z,3.9
2022-08-15T11:12:00.750Z,3.7
2022-08-15T11:14:20.507Z,3.9
2022-08-15T11:16:37.017Z,3.6
2022-08-15T11:18:58.010Z,3.8
2022-08-15T11:21:11.521Z,3.7
2022-08-15T11:23:25.727Z,3.8
2022-08-15T11:25:40.167Z,3.3
2022-08-15T11:27:57.603Z,3.4
2022-08-15T11:30:19.294Z,3.5
2022-08-15T11:32:30.260Z,3.9
2022-08-15T11:34:45.798Z,3.1
2022-08-15T11:37:00.162Z,3.3
2022-08-15T11:39:19.460Z,3.4
2022-08-15T11:41:32.903Z,3.5
2022-08-15T11:43:49.348Z,3.8
2022-08-15T11:46:15.847Z,3.9
2022-08-15T11:48:22.409Z,3.4
2022-08-15T11:50:37.983Z,3.1
2022-08-15T11:52:52.810Z,3.3
2022-08-15T11:55:07.473Z,3.8
2022-08-15T11:57:43.441Z,3.6
2022-08-15T11:59:39.295Z,3.6
2022-08-15T12:01:54.590Z,3.9
2022-08-15T12:04:39.017Z,4.1
2022-08-15T12:06:32.647Z,3.6
2022-08-15T12:08:46.572Z,3.7
2022-08-15T12:11:00.621Z,5.1
2022-08-15T12:13:24.955Z,4.1
2022-08-15T12:15:32.530Z,4.1
2022-08-15T12:17:54.841Z,3.8
2022-08-15T12:20:26.000Z,3.7
2022-08-15T12:22:43.674Z,3.6
2022-08-15T12:24:47.657Z,3.7
2022-08-15T12:27:03.209Z,3.5
2022-08-15T12:29:14.989Z,3.5
2022-08-15T12:31:31.533Z,3.3
2022-08-15T12:33:48.709Z,3.8
2022-08-15T12:36:05.427Z,3.7
2022-08-15T12:38:20.787Z,3.6
2022-08-15T12:40:46.825Z,3.9
2022-08-15T12:42:59.900Z,4
2022-08-15T12:45:13.931Z,3.8
2022-08-15T12:47:31.965Z,3.5
2022-08-15T12:49:48.005Z,3.4
2022-08-15T12:52:01.688Z,3.7
2022-08-15T12:54:23.909Z,3.3
2022-08-15T12:56:44.640Z,3.7
2022-08-15T12:58:52.757Z,3.8
2022-08-15T13:01:13.705Z,3.8
2022-08-15T13:03:28.021Z,3.7
2022-08-15T13:05:57.897Z,4
2022-08-15T13:08:03.875Z,4.8
2022-08-15T13:10:56.823Z,4.1
2022-08-15T13:12:35.138Z,4.5
2022-08-15T13:14:50.751Z,4.6
2022-08-15T13:17:42.457Z,4.4
2022-08-15T13:19:24.480Z,3.9
2022-08-15T13:21:39.871Z,4.3
2022-08-15T13:24:11.896Z,5
2022-08-15T13:26:19.913Z,4.6
2022-08-15T13:28:33.620Z,4.2
2022-08-15T13:31:01.505Z,4.4
2022-08-15T13:33:06.294Z,3.9
2022-08-15T13:35:20.715Z,3.9
2022-08-15T13:37:54.496Z,4
2022-08-15T13:39:55.619Z,4
2022-08-15T13:42:36.148Z,4.2
2022-08-15T13:44:30.128Z,3.5
2022-08-15T13:46:50.461Z,4
2022-08-15T13:49:05.307Z,4
2022-08-15T13:51:18.110Z,5.4
2022-08-15T13:53:52.529Z,4.4
2022-08-15T13:55:51.999Z,3.2
2022-08-15T13:58:12.151Z,3.3
2022-08-15T14:00:41.846Z,2.3
2022-08-15T14:02:45.747Z,2.6
2022-08-15T14:05:00.207Z,3.1
2022-08-15T14:07:15.549Z,3.2
2022-08-15T14:10:02.326Z,3
2022-08-15T14:11:55.388Z,3.6
2022-08-15T14:14:35.167Z,4.5
2022-08-15T14:16:34.893Z,5.3
2022-08-15T14:18:49.922Z,5.2
2022-08-15T14:20:59.648Z,5.1
2022-08-15T14:23:15.089Z,5.2
2022-08-15T14:27:05.701Z,4.5
2022-08-15T14:27:50.452Z,4
2022-08-15T14:30:06.259Z,4.1
2022-08-15T14:32:48.853Z,4.7
2022-08-15T14:34:56.982Z,5.1
2022-08-15T14:36:55.934Z,5.1
2022-08-15T14:39:12.380Z,4.9
2022-08-15T14:41:27.435Z,4.6
2022-08-15T14:43:43.845Z,5.3
2022-08-15T14:46:31.899Z,5.3
2022-08-15T14:48:23.629Z,4.9
2022-08-15T14:50:46.364Z,4.5
2022-08-15T14:52:53.391Z,5.1
2022-08-15T14:55:10.355Z,5.4
2022-08-15T14:57:26.264Z,4.8
2022-08-15T14:59:57.021Z,5
2022-08-15T15:01:58.784Z,5.1
2022-08-15T15:04:20.647Z,4.9
2022-08-15T15:06:31.346Z,4.6
2022-08-15T15:08:48.440Z,5
2022-08-15T15:11:02.823Z,4.7
2022-08-15T15:13:18.804Z,4.4
2022-08-15T15:15:38.583Z,5
2022-08-15T15:17:51.186Z,4.9
2022-08-15T15:20:17.474Z,4.9
2022-08-15T15:22:23.174Z,4.3
2022-08-15T15:24:40.083Z,3.8
2022-08-15T15:26:56.596Z,3.7
2022-08-15T15:29:11.985Z,3.7
2022-08-15T15:31:29.380Z,3.9
2022-08-15T15:33:44.830Z,6.7
2022-08-15T15:36:00.238Z,7.7
2022-08-15T15:38:35.512Z,3.9
2022-08-15T15:40:33.034Z,4.4
2022-08-15T15:42:49.425Z,3.6
2022-08-15T15:45:03.740Z,3.8
2022-08-15T15:47:24.994Z,3.3
2022-08-15T15:49:40.047Z,3.4
2022-08-15T15:51:55.191Z,3.1
2022-08-15T15:54:34.630Z,3.3
2022-08-15T15:56:37.262Z,3.5
2022-08-15T15:58:52.435Z,3
2022-08-15T16:01:24.691Z,3.2
2022-08-15T16:03:23.228Z,3.3
2022-08-15T16:06:02.208Z,3.5
2022-08-15T16:07:57.489Z,3.4
2022-08-15T16:10:14.886Z,3.3
2022-08-15T16:12:59.205Z,3.2
2022-08-15T16:14:48.237Z,3.5
2022-08-15T16:17:01.667Z,3.5
2022-08-15T16:19:17.043Z,4
2022-08-15T16:21:31.386Z,3.9
2022-08-15T16:23:48.830Z,3.2
2022-08-15T16:26:05.853Z,3.6
2022-08-15T16:28:20.188Z,4
2022-08-15T16:30:35.468Z,3.4
2022-08-15T16:32:52.066Z,4.1
2022-08-15T16:35:08.334Z,4
2022-08-15T16:37:23.163Z,3.9
2022-08-15T16:39:41.237Z,3.7
2022-08-15T16:41:55.300Z,3.7
2022-08-15T16:44:13.384Z,5.1
